createdAt,value
2019-05-14T00:00:15.358Z,7.28
2019-05-14T00:01:12.377Z,7.28
2019-05-14T00:02:11.944Z,7.26
2019-05-14T00:03:06.541Z,7.28
2019-05-14T00:04:03.432Z,7.25
2019-05-14T00:05:01.721Z,7.28
2019-05-14T00:05:57.461Z,7.26
2019-05-14T00:06:54.502Z,7.23
2019-05-14T00:07:52.169Z,7.19
2019-05-14T00:08:48.566Z,7.17
2019-05-14T00:09:45.508Z,7.11
2019-05-14T00:10:42.468Z,7.07
2019-05-14T00:11:41.855Z,7.03
2019-05-14T00:12:36.519Z,7.00
2019-05-14T00:13:33.555Z,6.96
2019-05-14T00:14:39.814Z,6.96
2019-05-14T00:15:27.544Z,6.94
2019-05-14T00:16:24.565Z,6.92
2019-05-14T00:17:21.661Z,6.92
2019-05-14T00:18:18.560Z,6.90
2019-05-14T00:19:15.577Z,6.86
2019-05-14T00:20:13.529Z,6.84
2019-05-14T00:21:12.022Z,6.84
2019-05-14T00:22:06.599Z,6.82
2019-05-14T00:23:03.725Z,6.82
2019-05-14T00:24:01.837Z,6.82
2019-05-14T00:24:57.692Z,6.84
2019-05-14T00:25:54.637Z,6.86
2019-05-14T00:26:51.841Z,6.86
2019-05-14T00:27:48.707Z,6.86
2019-05-14T00:28:45.696Z,6.88
2019-05-14T00:29:42.695Z,6.90
2019-05-14T00:30:42.102Z,6.92
2019-05-14T00:31:36.763Z,6.88
2019-05-14T00:32:33.690Z,6.84
2019-05-14T00:33:31.578Z,6.80
2019-05-14T00:34:27.868Z,6.78
2019-05-14T00:35:24.719Z,6.73
2019-05-14T00:36:21.739Z,6.69
2019-05-14T00:37:18.776Z,6.65
2019-05-14T00:38:15.814Z,6.63
2019-05-14T00:39:12.794Z,6.59
2019-05-14T00:40:11.767Z,6.57
2019-05-14T00:41:06.940Z,6.52
2019-05-14T00:42:03.907Z,6.46
2019-05-14T00:43:02.643Z,6.44
2019-05-14T00:43:57.856Z,6.38
2019-05-14T00:44:57.955Z,6.38
2019-05-14T00:45:51.836Z,6.40
2019-05-14T00:50:36.695Z,6.21
2019-05-14T00:51:33.772Z,6.15
2019-05-14T00:52:31.486Z,6.11
2019-05-14T00:53:27.841Z,6.11
2019-05-14T00:54:24.825Z,6.11
2019-05-14T00:55:22.379Z,6.13
2019-05-14T00:56:18.786Z,6.15
2019-05-14T00:57:15.836Z,6.21
2019-05-14T00:58:12.825Z,6.21
2019-05-14T00:59:11.373Z,6.23
2019-05-14T01:00:06.899Z,6.25
2019-05-14T01:01:03.817Z,6.26
2019-05-14T01:02:03.083Z,6.26
2019-05-14T01:02:57.867Z,6.28
2019-05-14T01:03:54.833Z,6.26
2019-05-14T01:04:51.874Z,6.30
2019-05-14T01:05:48.970Z,6.30
2019-05-14T01:06:45.958Z,6.34
2019-05-14T01:07:42.992Z,6.34
2019-05-14T01:08:41.358Z,6.36
2019-05-14T01:09:37.052Z,6.34
2019-05-14T01:10:34.021Z,6.36
2019-05-14T01:11:31.523Z,6.36
2019-05-14T01:12:28.043Z,6.38
2019-05-14T01:13:24.983Z,6.34
2019-05-14T01:14:22.115Z,6.34
2019-05-14T01:15:18.965Z,6.32
2019-05-14T01:16:16.073Z,6.30
2019-05-14T01:17:13.112Z,6.30
2019-05-14T01:18:11.397Z,6.34
2019-05-14T01:19:07.084Z,6.38
2019-05-14T01:20:04.081Z,6.42
2019-05-14T01:21:01.292Z,6.42
2019-05-14T01:21:58.035Z,6.40
2019-05-14T01:22:55.146Z,6.38
2019-05-14T01:23:52.092Z,6.38
2019-05-14T01:24:49.118Z,6.38
2019-05-14T01:25:46.059Z,6.32
2019-05-14T01:26:43.094Z,6.30
2019-05-14T01:27:41.320Z,6.28
2019-05-14T01:28:37.309Z,6.30
2019-05-14T01:29:34.149Z,6.30
2019-05-14T01:30:31.970Z,6.34
2019-05-14T01:31:28.300Z,6.34
2019-05-14T01:32:25.129Z,6.34
2019-05-14T01:33:22.165Z,6.34
2019-05-14T01:34:21.475Z,6.36
2019-05-14T01:35:16.242Z,6.40
2019-05-14T01:36:13.164Z,6.42
2019-05-14T01:37:11.665Z,6.42
2019-05-14T01:38:07.324Z,6.42
2019-05-14T01:39:04.312Z,6.44
2019-05-14T01:40:01.361Z,6.42
2019-05-14T01:40:58.283Z,6.44
2019-05-14T01:41:55.303Z,6.44
2019-05-14T01:42:52.445Z,6.44
2019-05-14T01:43:51.292Z,6.46
2019-05-14T01:44:46.298Z,6.44
2019-05-14T01:45:43.329Z,6.42
2019-05-14T01:46:42.028Z,6.42
2019-05-14T01:47:37.407Z,6.38
2019-05-14T01:48:34.356Z,6.40
2019-05-14T01:49:31.911Z,6.38
2019-05-14T01:50:28.317Z,6.38
2019-05-14T01:51:25.355Z,6.34
2019-05-14T01:52:22.412Z,6.30
2019-05-14T01:53:21.856Z,6.28
2019-05-14T01:54:16.390Z,6.28
2019-05-14T01:55:13.438Z,6.25
2019-05-14T01:56:11.981Z,6.23
2019-05-14T01:57:07.492Z,6.21
2019-05-14T01:58:04.418Z,6.19
2019-05-14T01:59:01.825Z,6.21
2019-05-14T01:59:58.500Z,6.21
2019-05-14T02:00:55.418Z,6.19
2019-05-14T02:01:52.495Z,6.19
2019-05-14T02:02:52.226Z,6.19
2019-05-14T02:03:46.653Z,6.21
2019-05-14T02:04:43.465Z,6.21
2019-05-14T02:05:41.647Z,6.21
2019-05-14T02:06:37.546Z,6.17
2019-05-14T02:07:34.492Z,6.15
2019-05-14T02:08:32.181Z,6.15
2019-05-14T02:09:30.594Z,6.13
2019-05-14T02:10:25.628Z,6.11
2019-05-14T02:11:22.632Z,6.11
2019-05-14T02:12:22.155Z,6.09
2019-05-14T02:13:16.603Z,6.13
2019-05-14T02:14:13.650Z,6.13
2019-05-14T02:15:11.998Z,6.13
2019-05-14T02:16:07.623Z,6.11
2019-05-14T02:17:04.661Z,6.11
2019-05-14T02:18:02.370Z,6.07
2019-05-14T02:19:01.212Z,6.11
2019-05-14T02:19:55.695Z,6.09
2019-05-14T02:20:52.711Z,6.11
2019-05-14T02:21:51.420Z,6.09
2019-05-14T02:22:46.721Z,6.09
2019-05-14T02:23:43.804Z,6.07
2019-05-14T02:24:41.747Z,6.05
2019-05-14T02:25:37.679Z,6.00
2019-05-14T02:26:34.728Z,5.96
2019-05-14T02:27:34.920Z,5.92
2019-05-14T02:28:28.824Z,5.88
2019-05-14T02:29:25.823Z,5.86
2019-05-14T02:30:28.500Z,5.82
2019-05-14T02:31:20.340Z,5.78
2019-05-14T02:32:18.418Z,5.76
2019-05-14T02:33:13.981Z,5.76
2019-05-14T02:34:10.874Z,5.75
2019-05-14T02:35:09.947Z,5.73
2019-05-14T02:36:04.775Z,5.69
2019-05-14T02:37:01.909Z,5.69
2019-05-14T02:37:59.766Z,5.65
2019-05-14T02:38:55.807Z,5.67
2019-05-14T02:39:52.970Z,5.65
2019-05-14T02:40:49.910Z,5.65
2019-05-14T02:41:49.665Z,5.65
2019-05-14T02:42:43.925Z,5.63
2019-05-14T02:43:41.250Z,5.59
2019-05-14T02:44:40.829Z,5.57
2019-05-14T02:45:34.955Z,5.57
2019-05-14T02:46:31.888Z,5.55
2019-05-14T02:47:29.781Z,5.57
2019-05-14T02:48:28.990Z,5.57
2019-05-14T02:49:23.035Z,5.57
2019-05-14T02:50:20.384Z,5.55
2019-05-14T02:51:19.953Z,5.55
2019-05-14T02:52:14.005Z,5.53
2019-05-14T02:53:10.966Z,5.48
2019-05-14T02:54:10.047Z,5.50
2019-05-14T02:55:05.219Z,5.53
2019-05-14T02:56:02.050Z,5.53
2019-05-14T02:56:59.936Z,5.52
2019-05-14T02:57:59.518Z,5.46
2019-05-14T02:58:53.068Z,5.46
2019-05-14T02:59:50.569Z,5.46
2019-05-14T03:00:49.185Z,5.48
2019-05-14T03:01:44.064Z,5.48
2019-05-14T03:02:41.121Z,5.50
2019-05-14T03:03:40.076Z,5.48
2019-05-14T03:04:35.125Z,5.51
2019-05-14T03:05:32.250Z,5.53
2019-05-14T03:06:29.366Z,5.53
2019-05-14T03:07:26.193Z,5.51
2019-05-14T03:08:23.140Z,5.48
2019-05-14T03:09:20.616Z,5.48
2019-05-14T03:10:19.455Z,5.44
2019-05-14T03:11:14.159Z,5.42
2019-05-14T03:12:11.220Z,5.40
2019-05-14T03:13:09.502Z,5.38
2019-05-14T03:14:08.825Z,5.36
2019-05-14T03:15:02.320Z,5.34
2019-05-14T03:15:59.705Z,5.34
2019-05-14T03:16:59.205Z,5.36
2019-05-14T03:17:53.339Z,5.36
2019-05-14T03:18:50.663Z,5.36
2019-05-14T03:19:49.609Z,5.34
2019-05-14T03:20:44.235Z,5.30
2019-05-14T03:21:41.287Z,5.30
2019-05-14T03:22:55.909Z,5.28
2019-05-14T03:23:35.331Z,5.26
2019-05-14T03:24:32.404Z,5.25
2019-05-14T03:25:30.300Z,5.25
2019-05-14T03:26:29.354Z,5.23
2019-05-14T03:27:23.390Z,5.23
2019-05-14T03:28:20.412Z,5.23
2019-05-14T03:29:19.590Z,5.26
2019-05-14T03:30:14.404Z,5.26
2019-05-14T03:31:13.064Z,5.26
2019-05-14T03:32:12.753Z,5.25
2019-05-14T03:33:05.431Z,5.23
2019-05-14T03:34:03.775Z,5.23
2019-05-14T03:35:03.966Z,5.21
2019-05-14T03:36:01.442Z,5.19
2019-05-14T03:36:53.794Z,5.17
2019-05-14T03:37:50.577Z,5.15
2019-05-14T03:38:50.140Z,5.17
2019-05-14T03:39:44.537Z,5.15
2019-05-14T03:40:41.586Z,5.13
2019-05-14T03:41:39.627Z,5.11
2019-05-14T03:42:35.597Z,5.13
2019-05-14T03:43:32.538Z,5.13
2019-05-14T03:44:29.588Z,5.13
2019-05-14T03:45:29.674Z,5.15
2019-05-14T03:46:41.089Z,5.17
2019-05-14T03:47:20.591Z,5.15
2019-05-14T03:48:19.097Z,5.15
2019-05-14T03:49:14.719Z,5.15
2019-05-14T03:50:11.594Z,5.13
2019-05-14T03:51:09.204Z,5.13
2019-05-14T03:52:05.552Z,5.13
2019-05-14T03:53:02.715Z,5.13
2019-05-14T03:54:05.845Z,5.11
2019-05-14T03:55:01.187Z,5.13
2019-05-14T03:55:53.763Z,5.15
2019-05-14T03:56:50.718Z,5.17
2019-05-14T03:57:49.995Z,5.15
2019-05-14T03:58:44.726Z,5.15
2019-05-14T03:59:41.823Z,5.13
2019-05-14T04:00:39.159Z,5.11
2019-05-14T04:01:35.763Z,5.11
2019-05-14T04:02:32.730Z,5.11
2019-05-14T04:03:29.809Z,5.11
2019-05-14T04:04:29.766Z,5.13
2019-05-14T04:05:23.762Z,5.13
2019-05-14T04:06:20.815Z,5.15
2019-05-14T04:07:19.598Z,5.15
2019-05-14T04:08:14.808Z,5.19
2019-05-14T04:09:11.828Z,5.25
2019-05-14T04:10:10.306Z,5.26
2019-05-14T04:11:09.332Z,5.28
2019-05-14T04:12:02.853Z,5.28
2019-05-14T04:12:59.966Z,5.28
2019-05-14T04:13:59.899Z,5.30
2019-05-14T04:14:53.834Z,5.36
2019-05-14T04:15:50.860Z,5.38
2019-05-14T04:17:01.319Z,5.40
2019-05-14T04:17:44.877Z,5.40
2019-05-14T04:18:41.887Z,5.42
2019-05-14T04:19:39.590Z,5.44
2019-05-14T04:20:39.128Z,5.44
2019-05-14T04:21:32.888Z,5.46
2019-05-14T04:22:30.098Z,5.48
2019-05-14T04:23:28.969Z,5.48
2019-05-14T04:24:23.988Z,5.50
2019-05-14T04:25:20.921Z,5.48
2019-05-14T04:26:19.981Z,5.48
2019-05-14T04:27:15.017Z,5.44
2019-05-14T04:28:12.065Z,5.46
2019-05-14T04:29:10.196Z,5.46
2019-05-14T04:30:09.270Z,5.48
2019-05-14T04:31:03.130Z,5.48
2019-05-14T04:32:00.460Z,5.51
2019-05-14T04:32:59.418Z,5.51
2019-05-14T04:33:54.048Z,5.52
2019-05-14T04:34:51.097Z,5.53
2019-05-14T04:35:49.086Z,5.55
2019-05-14T04:36:45.233Z,5.52
2019-05-14T04:37:42.188Z,5.53
2019-05-14T04:38:41.014Z,5.53
2019-05-14T04:39:39.254Z,5.53
2019-05-14T04:40:33.114Z,5.53
2019-05-14T04:41:30.351Z,5.53
2019-05-14T04:42:29.471Z,5.55
2019-05-14T04:43:24.116Z,5.61
2019-05-14T04:44:21.197Z,5.61
2019-05-14T04:45:19.713Z,5.63
2019-05-14T04:46:15.222Z,5.65
2019-05-14T04:47:26.095Z,5.65
2019-05-14T04:48:27.103Z,5.65
2019-05-14T04:49:09.337Z,5.65
2019-05-14T04:50:03.190Z,5.63
2019-05-14T04:51:00.758Z,5.69
2019-05-14T04:51:59.482Z,5.71
2019-05-14T04:52:54.205Z,5.73
2019-05-14T04:53:51.309Z,5.75
2019-05-14T04:54:49.932Z,5.76
2019-05-14T04:55:45.297Z,5.77
2019-05-14T04:56:42.252Z,5.80
2019-05-14T04:57:39.664Z,5.82
2019-05-14T04:58:39.773Z,5.84
2019-05-14T04:59:33.264Z,5.86
2019-05-14T05:00:30.765Z,5.88
2019-05-14T05:01:29.440Z,5.92
2019-05-14T05:02:24.450Z,5.92
2019-05-14T05:03:21.334Z,5.92
2019-05-14T05:04:20.333Z,5.92
2019-05-14T05:05:15.367Z,5.94
2019-05-14T05:06:12.317Z,5.94
2019-05-14T05:07:10.085Z,5.98
2019-05-14T05:08:09.051Z,5.98
2019-05-14T05:09:03.484Z,6.00
2019-05-14T05:10:00.377Z,6.03
2019-05-14T05:11:00.007Z,6.07
2019-05-14T05:11:54.363Z,6.11
2019-05-14T05:12:51.483Z,6.15
2019-05-14T05:13:48.778Z,6.17
2019-05-14T05:14:45.434Z,6.19
2019-05-14T05:15:42.486Z,6.23
2019-05-14T05:16:39.444Z,6.23
2019-05-14T05:17:44.314Z,6.21
2019-05-14T05:18:33.535Z,6.21
2019-05-14T05:19:30.565Z,6.26
2019-05-14T05:20:29.125Z,6.28
2019-05-14T05:21:24.511Z,6.30
2019-05-14T05:22:21.459Z,6.32
2019-05-14T05:23:19.003Z,6.38
2019-05-14T05:24:15.494Z,6.42
2019-05-14T05:25:12.553Z,6.46
2019-05-14T05:26:09.579Z,6.50
2019-05-14T05:27:09.088Z,6.53
2019-05-14T05:28:03.716Z,6.55
2019-05-14T05:29:06.500Z,6.57
2019-05-14T05:29:58.936Z,6.57
2019-05-14T05:30:54.558Z,6.61
2019-05-14T05:31:51.613Z,6.65
2019-05-14T05:32:49.489Z,6.67
2019-05-14T05:33:45.686Z,6.69
2019-05-14T05:34:42.644Z,6.71
2019-05-14T05:35:42.331Z,6.73
2019-05-14T05:36:38.048Z,6.77
2019-05-14T05:37:34.244Z,6.82
2019-05-14T05:38:30.695Z,6.86
2019-05-14T05:39:28.377Z,6.86
2019-05-14T05:40:24.764Z,6.88
2019-05-14T05:41:21.758Z,6.90
2019-05-14T05:42:19.044Z,6.94
2019-05-14T05:43:15.766Z,6.96
2019-05-14T05:44:12.776Z,6.98
2019-05-14T05:45:09.717Z,6.98
2019-05-14T05:46:08.654Z,7.01
2019-05-14T05:47:03.785Z,7.07
2019-05-14T05:48:01.797Z,7.09
2019-05-14T05:48:58.726Z,7.11
2019-05-14T05:49:54.791Z,7.13
2019-05-14T05:50:51.971Z,7.15
2019-05-14T05:51:48.768Z,7.15
2019-05-14T05:52:45.823Z,7.17
2019-05-14T05:53:42.909Z,7.19
2019-05-14T05:54:39.931Z,7.19
2019-05-14T05:55:39.244Z,7.21
2019-05-14T05:56:33.875Z,7.23
2019-05-14T05:57:30.908Z,7.28
2019-05-14T05:58:29.815Z,7.34
2019-05-14T05:59:24.881Z,7.38
2019-05-14T06:00:22.004Z,7.42
2019-05-14T06:01:19.774Z,7.44
2019-05-14T06:02:18.383Z,7.44
2019-05-14T06:03:12.947Z,7.46
2019-05-14T06:04:10.044Z,7.53
2019-05-14T06:05:08.047Z,7.59
2019-05-14T06:06:03.972Z,7.61
2019-05-14T06:07:02.745Z,7.67
2019-05-14T06:07:59.074Z,7.69
2019-05-14T06:08:54.946Z,7.69
2019-05-14T06:09:52.016Z,7.73
2019-05-14T06:10:49.169Z,7.75
2019-05-14T06:11:48.556Z,7.78
2019-05-14T06:12:42.978Z,7.80
2019-05-14T06:13:40.110Z,7.86
2019-05-14T06:14:38.193Z,7.94
2019-05-14T06:15:44.518Z,8.01
2019-05-14T06:16:31.073Z,8.02
2019-05-14T06:17:28.516Z,8.05
2019-05-14T06:18:25.109Z,8.06
2019-05-14T06:19:22.051Z,8.11
2019-05-14T06:20:19.119Z,8.15
2019-05-14T06:21:18.654Z,8.18
2019-05-14T06:22:13.234Z,8.21
2019-05-14T06:23:10.088Z,8.25
2019-05-14T06:24:09.026Z,8.31
2019-05-14T06:25:04.207Z,8.31
2019-05-14T06:26:01.220Z,8.31
2019-05-14T06:26:58.751Z,8.31
2019-05-14T06:27:55.383Z,8.35
2019-05-14T06:28:52.234Z,8.39
2019-05-14T06:29:49.157Z,8.48
2019-05-14T06:30:48.310Z,8.55
2019-05-14T06:31:43.224Z,8.64
2019-05-14T06:32:40.275Z,8.71
2019-05-14T06:33:39.408Z,8.75
2019-05-14T06:34:34.324Z,8.80
2019-05-14T06:35:31.264Z,8.86
2019-05-14T06:36:29.081Z,8.94
2019-05-14T06:37:25.281Z,9.02
2019-05-14T06:38:22.418Z,9.09
2019-05-14T06:39:19.523Z,9.09
2019-05-14T06:40:16.246Z,9.11
2019-05-14T06:41:13.288Z,9.11
2019-05-14T06:42:10.325Z,9.14
2019-05-14T06:43:09.143Z,9.15
2019-05-14T06:44:04.521Z,9.15
2019-05-14T06:45:01.377Z,9.14
2019-05-14T06:45:58.747Z,9.07
2019-05-14T06:46:55.413Z,9.01
2019-05-14T06:47:52.489Z,9.01
2019-05-14T06:48:49.405Z,9.00
2019-05-14T06:49:48.591Z,8.98
2019-05-14T06:50:43.394Z,8.98
2019-05-14T06:51:40.436Z,9.01
2019-05-14T06:52:38.795Z,9.09
2019-05-14T06:53:34.473Z,9.13
2019-05-14T06:54:31.503Z,9.17
2019-05-14T06:55:28.500Z,9.23
2019-05-14T06:56:28.051Z,9.35
2019-05-14T06:57:22.416Z,9.48
2019-05-14T06:58:20.487Z,9.56
2019-05-14T06:59:18.167Z,9.59
2019-05-14T07:00:13.528Z,9.61
2019-05-14T07:01:10.560Z,9.72
2019-05-14T07:02:08.774Z,9.82
2019-05-14T07:03:04.566Z,9.90
2019-05-14T07:04:01.571Z,9.98
2019-05-14T07:04:59.093Z,10.10
2019-05-14T07:05:55.586Z,10.21
2019-05-14T07:06:52.616Z,10.28
2019-05-14T07:07:49.654Z,10.39
2019-05-14T07:08:48.649Z,10.44
2019-05-14T07:09:43.686Z,10.56
2019-05-14T07:10:40.630Z,10.68
2019-05-14T07:11:38.854Z,10.85
2019-05-14T07:12:34.640Z,11.07
2019-05-14T07:13:31.676Z,11.65
2019-05-14T07:14:28.588Z,12.77
2019-05-14T07:15:25.698Z,14.06
2019-05-14T07:16:22.674Z,15.02
2019-05-14T07:17:19.724Z,15.90
2019-05-14T07:18:18.864Z,16.82
2019-05-14T07:19:15.801Z,17.47
2019-05-14T07:20:10.904Z,17.38
2019-05-14T07:21:08.273Z,16.94
2019-05-14T07:22:04.679Z,16.70
2019-05-14T07:23:01.809Z,16.68
2019-05-14T07:23:59.334Z,16.76
2019-05-14T07:24:55.828Z,16.53
2019-05-14T07:25:52.805Z,16.14
2019-05-14T07:26:49.797Z,15.79
2019-05-14T07:27:48.875Z,15.38
2019-05-14T07:28:43.734Z,15.03
2019-05-14T07:29:40.802Z,14.69
2019-05-14T07:30:39.555Z,14.43
2019-05-14T07:31:34.886Z,14.02
2019-05-14T07:32:31.809Z,13.79
2019-05-14T07:33:29.487Z,13.72
2019-05-14T07:34:28.095Z,13.50
2019-05-14T07:35:22.911Z,13.39
2019-05-14T07:36:19.863Z,13.19
2019-05-14T07:37:18.062Z,13.14
2019-05-14T07:38:13.893Z,13.27
2019-05-14T07:39:10.849Z,13.46
2019-05-14T07:40:08.574Z,13.65
2019-05-14T07:41:05.002Z,13.75
2019-05-14T07:42:01.968Z,13.71
2019-05-14T07:42:58.919Z,13.80
2019-05-14T07:43:58.411Z,13.97
2019-05-14T07:44:52.976Z,14.09
2019-05-14T07:45:50.085Z,14.26
2019-05-14T07:46:48.377Z,14.43
2019-05-14T07:47:43.990Z,14.72
2019-05-14T07:48:41.040Z,14.93
2019-05-14T07:49:38.711Z,14.96
2019-05-14T07:50:34.942Z,15.05
2019-05-14T07:51:32.042Z,15.11
2019-05-14T07:52:29.087Z,15.22
2019-05-14T07:53:36.074Z,15.28
2019-05-14T07:54:23.154Z,15.36
2019-05-14T07:55:20.059Z,15.43
2019-05-14T07:56:18.679Z,15.52
2019-05-14T07:57:14.024Z,15.48
2019-05-14T07:58:11.148Z,15.40
2019-05-14T07:59:08.930Z,15.35
2019-05-14T08:00:05.346Z,15.39
2019-05-14T08:01:02.180Z,15.52
2019-05-14T08:01:59.110Z,15.63
2019-05-14T08:02:58.079Z,15.75
2019-05-14T08:03:53.150Z,16.04
2019-05-14T08:04:50.214Z,16.17
2019-05-14T08:05:48.290Z,16.12
2019-05-14T08:06:44.196Z,16.37
2019-05-14T08:07:41.182Z,16.75
2019-05-14T08:08:38.732Z,17.20
2019-05-14T08:09:35.305Z,17.46
2019-05-14T08:10:32.249Z,17.53
2019-05-14T08:11:29.484Z,17.55
2019-05-14T08:12:28.387Z,17.50
2019-05-14T08:13:23.252Z,17.63
2019-05-14T08:14:20.411Z,17.62
2019-05-14T08:15:19.934Z,17.92
2019-05-14T08:16:14.567Z,18.47
2019-05-14T08:17:11.299Z,18.69
2019-05-14T08:18:08.377Z,18.70
2019-05-14T08:19:23.039Z,18.77
2019-05-14T08:20:02.320Z,18.63
2019-05-14T08:20:59.534Z,18.79
2019-05-14T08:21:58.540Z,18.87
2019-05-14T08:22:53.330Z,18.63
2019-05-14T08:23:50.365Z,18.27
2019-05-14T08:24:48.983Z,18.17
2019-05-14T08:25:44.542Z,18.26
2019-05-14T08:26:42.881Z,18.42
2019-05-14T08:27:38.880Z,18.39
2019-05-14T08:28:35.486Z,18.38
2019-05-14T08:29:32.551Z,18.32
2019-05-14T08:30:29.529Z,18.37
2019-05-14T08:31:29.078Z,18.46
2019-05-14T08:32:23.515Z,18.57
2019-05-14T08:33:20.535Z,18.76
2019-05-14T08:34:19.182Z,19.03
2019-05-14T08:35:14.543Z,19.28
2019-05-14T08:36:11.576Z,18.76
2019-05-14T08:37:08.494Z,19.20
2019-05-14T08:38:08.593Z,19.62
2019-05-14T08:39:02.600Z,18.50
2019-05-14T08:39:59.595Z,17.36
2019-05-14T08:40:58.739Z,18.11
2019-05-14T08:41:59.516Z,19.51
2019-05-14T08:42:50.601Z,20.50
2019-05-14T08:43:48.985Z,21.68
2019-05-14T08:44:48.023Z,22.40
2019-05-14T08:45:41.627Z,22.04
2019-05-14T08:46:39.014Z,20.05
2019-05-14T08:47:35.683Z,18.10
2019-05-14T08:48:32.658Z,16.76
2019-05-14T08:49:38.919Z,17.98
2019-05-14T08:50:28.139Z,18.95
2019-05-14T08:51:23.778Z,20.12
2019-05-14T08:52:20.675Z,18.96
2019-05-14T08:53:18.565Z,18.88
2019-05-14T08:54:14.748Z,18.86
2019-05-14T08:55:14.119Z,18.72
2019-05-14T08:56:12.094Z,20.03
2019-05-14T08:57:05.841Z,20.78
2019-05-14T08:58:02.848Z,22.01
2019-05-14T08:58:59.728Z,21.26
2019-05-14T08:59:59.410Z,20.11
2019-05-14T09:00:53.803Z,20.96
2019-05-14T09:02:01.895Z,21.78
2019-05-14T09:02:48.546Z,21.71
2019-05-14T09:03:44.856Z,21.45
2019-05-14T09:04:43.375Z,20.36
2019-05-14T09:05:38.874Z,20.62
2019-05-14T09:06:38.282Z,19.79
2019-05-14T09:07:32.862Z,19.43
2019-05-14T09:08:29.937Z,20.53
2019-05-14T09:09:29.016Z,20.28
2019-05-14T09:10:23.910Z,18.82
2019-05-14T09:11:24.580Z,19.82
2019-05-14T09:12:18.815Z,21.35
2019-05-14T09:13:14.873Z,22.60
2019-05-14T09:14:11.972Z,23.61
2019-05-14T09:15:09.771Z,24.60
2019-05-14T09:16:05.977Z,25.45
2019-05-14T09:17:02.928Z,23.87
2019-05-14T09:18:03.384Z,23.87
2019-05-14T09:18:58.183Z,24.44
2019-05-14T09:20:02.084Z,24.89
2019-05-14T09:20:50.992Z,25.50
2019-05-14T09:21:49.608Z,24.93
2019-05-14T09:22:45.147Z,22.80
2019-05-14T09:23:41.983Z,20.52
2019-05-14T09:24:39.048Z,18.70
2019-05-14T09:25:45.539Z,19.89
2019-05-14T09:26:33.114Z,20.86
2019-05-14T09:27:30.127Z,20.20
2019-05-14T09:28:28.542Z,19.92
2019-05-14T09:30:09.316Z,18.36
2019-05-14T09:30:21.058Z,16.95
2019-05-14T09:31:19.772Z,15.92
2019-05-14T09:32:15.216Z,15.25
2019-05-14T09:33:12.156Z,14.84
2019-05-14T09:34:09.353Z,14.51
2019-05-14T09:35:06.190Z,14.31
2019-05-14T09:36:17.639Z,15.47
2019-05-14T09:37:00.300Z,18.04
2019-05-14T09:37:59.242Z,19.11
2019-05-14T09:38:54.217Z,18.14
2019-05-14T09:39:51.206Z,17.86
2019-05-14T09:40:49.044Z,17.07
2019-05-14T09:41:45.285Z,16.34
2019-05-14T09:42:42.312Z,15.77
2019-05-14T09:43:39.471Z,15.47
2019-05-14T09:44:38.451Z,15.30
2019-05-14T09:45:33.237Z,15.01
2019-05-14T09:46:30.361Z,14.75
2019-05-14T09:47:28.208Z,15.05
2019-05-14T09:48:24.242Z,15.06
2019-05-14T09:49:21.327Z,14.86
2019-05-14T09:50:22.236Z,14.72
2019-05-14T09:51:15.360Z,14.59
2019-05-14T09:52:12.378Z,14.56
2019-05-14T09:53:09.848Z,14.56
2019-05-14T09:54:08.363Z,14.65
2019-05-14T09:55:03.336Z,14.97
2019-05-14T09:56:00.302Z,16.73
2019-05-14T09:56:59.113Z,17.14
2019-05-14T09:57:54.516Z,16.89
2019-05-14T09:58:51.391Z,16.48
2019-05-14T09:59:48.386Z,16.01
2019-05-14T10:00:48.321Z,15.68
2019-05-14T10:01:42.500Z,15.85
2019-05-14T10:02:39.573Z,15.94
2019-05-14T10:03:38.689Z,15.76
2019-05-14T10:04:33.508Z,15.51
2019-05-14T10:05:30.442Z,15.40
2019-05-14T10:06:28.428Z,15.10
2019-05-14T10:07:24.603Z,14.82
2019-05-14T10:08:21.432Z,14.79
2019-05-14T10:09:18.497Z,14.89
2019-05-14T10:10:19.369Z,15.07
2019-05-14T10:11:12.568Z,15.30
2019-05-14T10:12:09.462Z,15.61
2019-05-14T10:13:09.522Z,15.61
2019-05-14T10:14:03.618Z,15.48
2019-05-14T10:15:00.625Z,15.30
2019-05-14T10:15:58.874Z,15.09
2019-05-14T10:16:54.551Z,14.77
2019-05-14T10:17:51.599Z,14.79
2019-05-14T10:18:52.237Z,14.94
2019-05-14T10:19:45.620Z,14.81
2019-05-14T10:20:45.949Z,14.68
2019-05-14T10:21:39.638Z,14.60
2019-05-14T10:22:36.655Z,14.52
2019-05-14T10:23:33.694Z,14.52
2019-05-14T10:24:30.688Z,15.13
2019-05-14T10:25:28.759Z,15.88
2019-05-14T10:26:24.719Z,16.45
2019-05-14T10:27:21.741Z,16.88
2019-05-14T10:28:19.327Z,17.37
2019-05-14T10:29:15.628Z,17.56
2019-05-14T10:30:12.701Z,17.35
2019-05-14T10:31:13.061Z,16.77
2019-05-14T10:32:08.696Z,16.23
2019-05-14T10:33:09.473Z,15.86
2019-05-14T10:34:00.706Z,15.63
2019-05-14T10:34:58.996Z,15.35
2019-05-14T10:35:54.823Z,15.21
2019-05-14T10:36:51.809Z,15.10
2019-05-14T10:37:48.799Z,15.09
2019-05-14T10:38:45.727Z,15.17
2019-05-14T10:39:42.770Z,15.17
2019-05-14T10:40:39.734Z,15.19
2019-05-14T10:41:38.513Z,15.17
2019-05-14T10:42:33.929Z,15.17
2019-05-14T10:43:30.794Z,15.22
2019-05-14T10:44:29.309Z,15.77
2019-05-14T10:45:24.867Z,16.57
2019-05-14T10:46:21.929Z,17.25
2019-05-14T10:47:18.965Z,17.81
2019-05-14T10:48:15.879Z,18.40
2019-05-14T10:49:22.622Z,18.76
2019-05-14T10:50:13.888Z,19.12
2019-05-14T10:51:06.866Z,18.85
2019-05-14T10:52:03.971Z,18.51
2019-05-14T10:53:00.952Z,17.95
2019-05-14T10:53:59.357Z,17.36
2019-05-14T10:54:56.180Z,16.82
2019-05-14T10:55:51.997Z,16.29
2019-05-14T10:56:49.577Z,16.32
2019-05-14T10:57:45.937Z,16.54
2019-05-14T10:58:43.063Z,16.37
2019-05-14T10:59:40.003Z,15.98
2019-05-14T11:00:41.576Z,15.53
2019-05-14T11:01:34.030Z,15.69
2019-05-14T11:02:31.159Z,16.17
2019-05-14T11:03:30.088Z,16.78
2019-05-14T11:04:24.985Z,16.85
2019-05-14T11:05:22.019Z,16.64
2019-05-14T11:06:19.181Z,17.01
2019-05-14T11:07:18.412Z,17.14
2019-05-14T11:08:13.043Z,16.88
2019-05-14T11:09:10.091Z,16.52
2019-05-14T11:10:09.047Z,16.12
2019-05-14T11:11:04.466Z,15.77
2019-05-14T11:12:01.123Z,16.18
2019-05-14T11:12:59.420Z,16.82
2019-05-14T11:13:55.174Z,17.04
2019-05-14T11:14:52.095Z,16.89
2019-05-14T11:15:49.177Z,16.95
2019-05-14T11:16:48.404Z,17.54
2019-05-14T11:17:43.190Z,18.01
2019-05-14T11:18:40.297Z,18.18
2019-05-14T11:19:38.995Z,18.13
2019-05-14T11:20:34.214Z,17.82
2019-05-14T11:21:31.191Z,17.51
2019-05-14T11:22:28.861Z,17.11
2019-05-14T11:23:25.359Z,16.76
2019-05-14T11:24:22.475Z,16.40
2019-05-14T11:25:19.713Z,16.56
2019-05-14T11:26:18.332Z,16.42
2019-05-14T11:27:13.267Z,16.31
2019-05-14T11:28:10.296Z,16.29
2019-05-14T11:29:07.286Z,16.21
2019-05-14T11:30:04.376Z,15.97
2019-05-14T11:31:01.374Z,16.06
2019-05-14T11:31:58.297Z,16.64
2019-05-14T11:32:55.381Z,17.39
2019-05-14T11:33:52.331Z,17.55
2019-05-14T11:34:49.468Z,17.38
2019-05-14T11:35:46.350Z,17.10
2019-05-14T11:36:43.335Z,16.69
2019-05-14T11:37:41.459Z,16.62
2019-05-14T11:38:37.869Z,16.88
2019-05-14T11:39:34.378Z,17.29
2019-05-14T11:40:31.498Z,17.53
2019-05-14T11:41:28.465Z,17.72
2019-05-14T11:42:25.364Z,18.12
2019-05-14T11:43:22.501Z,18.54
2019-05-14T11:44:19.435Z,18.70
2019-05-14T11:45:16.788Z,18.87
2019-05-14T11:46:13.411Z,18.94
2019-05-14T11:47:10.438Z,18.80
2019-05-14T11:48:08.898Z,18.38
2019-05-14T11:49:04.514Z,17.87
2019-05-14T11:50:01.541Z,17.37
2019-05-14T11:50:59.305Z,16.90
2019-05-14T11:52:04.325Z,16.45
2019-05-14T11:52:52.597Z,16.11
2019-05-14T11:53:49.757Z,16.39
2019-05-14T11:54:49.199Z,16.84
2019-05-14T11:55:43.697Z,17.43
2019-05-14T11:56:41.836Z,18.07
2019-05-14T11:57:37.551Z,18.54
2019-05-14T11:58:34.645Z,18.69
2019-05-14T11:59:31.625Z,18.09
2019-05-14T12:00:29.598Z,17.55
2019-05-14T12:01:25.600Z,17.15
2019-05-14T12:02:22.650Z,16.59
2019-05-14T12:03:19.964Z,16.22
2019-05-14T12:04:18.723Z,16.62
2019-05-14T12:05:13.704Z,17.77
2019-05-14T12:06:10.618Z,18.10
2019-05-14T12:07:09.569Z,17.61
2019-05-14T12:08:04.674Z,17.13
2019-05-14T12:09:01.789Z,16.64
2019-05-14T12:09:58.634Z,16.52
2019-05-14T12:10:55.762Z,16.57
2019-05-14T12:11:52.702Z,17.06
2019-05-14T12:12:49.750Z,17.27
2019-05-14T12:13:48.724Z,17.38
2019-05-14T12:14:43.808Z,17.21
2019-05-14T12:15:40.796Z,16.76
2019-05-14T12:16:40.177Z,16.35
2019-05-14T12:17:34.697Z,16.14
2019-05-14T12:18:31.803Z,16.00
2019-05-14T12:19:29.019Z,16.02
2019-05-14T12:20:25.775Z,16.12
2019-05-14T12:21:22.859Z,16.48
2019-05-14T12:22:19.919Z,17.20
2019-05-14T12:23:19.013Z,17.69
2019-05-14T12:24:14.069Z,17.47
2019-05-14T12:25:10.870Z,17.10
2019-05-14T12:26:09.523Z,16.69
2019-05-14T12:27:04.820Z,16.86
2019-05-14T12:28:01.869Z,17.05
2019-05-14T12:28:59.431Z,17.52
2019-05-14T12:29:55.991Z,17.63
2019-05-14T12:30:52.842Z,17.42